createdAt,value
2024-02-13T00:00:18.648Z,94380.00
2024-02-13T00:01:18.759Z,94381.00
2024-02-13T00:02:18.765Z,94384.00
2024-02-13T00:03:18.821Z,94386.00
2024-02-13T00:04:18.872Z,94385.00
2024-02-13T00:05:18.956Z,94386.00
2024-02-13T00:06:18.927Z,94386.00
2024-02-13T00:07:19.012Z,94385.00
2024-02-13T00:08:19.171Z,94384.00
2024-02-13T00:09:19.199Z,94385.00
2024-02-13T00:10:19.156Z,94386.00
2024-02-13T00:11:19.204Z,94389.00
2024-02-13T00:12:19.228Z,94390.00
2024-02-13T00:13:19.262Z,94392.00
2024-02-13T00:14:19.340Z,94394.00
2024-02-13T00:15:19.408Z,94395.00
2024-02-13T00:16:19.761Z,94397.00
2024-02-13T00:17:19.541Z,94398.00
2024-02-13T00:18:19.630Z,94401.00
2024-02-13T00:19:19.657Z,94402.00
2024-02-13T00:20:19.700Z,94402.00
2024-02-13T00:21:19.731Z,94404.00
2024-02-13T00:22:19.810Z,94405.00
2024-02-13T00:23:19.906Z,94407.00
2024-02-13T00:24:19.880Z,94410.00
2024-02-13T00:25:19.984Z,94412.00
2024-02-13T00:26:20.053Z,94415.00
2024-02-13T00:27:20.066Z,94416.00
2024-02-13T00:28:20.136Z,94419.00
2024-02-13T00:29:20.279Z,94418.00
2024-02-13T00:30:20.252Z,94420.00
2024-02-13T00:31:20.290Z,94420.00
2024-02-13T00:32:20.383Z,94419.00
2024-02-13T00:33:20.606Z,94422.00
2024-02-13T00:34:20.545Z,94428.00
2024-02-13T00:35:20.515Z,94431.00
2024-02-13T00:36:20.549Z,94433.00
2024-02-13T00:37:20.653Z,94436.00
2024-02-13T00:38:20.671Z,94438.00
2024-02-13T00:39:20.706Z,94441.00
2024-02-13T00:40:20.757Z,94443.00
2024-02-13T00:41:20.806Z,94444.00
2024-02-13T00:42:20.835Z,94441.00
2024-02-13T00:43:20.863Z,94441.00
2024-02-13T00:44:21.051Z,94442.00
2024-02-13T00:45:20.977Z,94443.00
2024-02-13T00:46:21.033Z,94446.00
2024-02-13T00:47:21.139Z,94447.00
2024-02-13T00:48:21.246Z,94448.00
2024-02-13T00:49:21.302Z,94448.00
2024-02-13T00:50:21.317Z,94448.00
2024-02-13T00:51:21.293Z,94449.00
2024-02-13T00:52:21.328Z,94451.00
2024-02-13T00:53:21.411Z,94451.00
2024-02-13T00:54:21.436Z,94455.00
2024-02-13T00:55:21.474Z,94457.00
2024-02-13T00:56:21.560Z,94458.00
2024-02-13T00:57:21.618Z,94464.00
2024-02-13T00:58:21.658Z,94464.00
2024-02-13T00:59:21.836Z,94465.00
2024-02-13T01:00:21.729Z,94468.00
2024-02-13T01:01:21.788Z,94469.00
2024-02-13T01:02:21.843Z,94473.00
2024-02-13T01:03:21.889Z,94474.00
2024-02-13T01:04:21.926Z,94474.00
2024-02-13T01:05:21.971Z,94478.00
2024-02-13T01:06:21.999Z,94479.00
2024-02-13T01:07:22.016Z,94477.00
2024-02-13T01:08:22.121Z,94479.00
2024-02-13T01:09:22.130Z,94479.00
2024-02-13T01:10:22.143Z,94479.00
2024-02-13T01:11:22.224Z,94477.00
2024-02-13T01:12:22.195Z,94477.00
2024-02-13T01:13:22.239Z,94477.00
2024-02-13T01:14:22.314Z,94478.00
2024-02-13T01:15:22.356Z,94478.00
2024-02-13T01:16:22.428Z,94480.00
2024-02-13T01:17:22.625Z,94482.00
2024-02-13T01:18:22.750Z,94484.00
2024-02-13T01:19:22.758Z,94486.00
2024-02-13T01:20:22.707Z,94487.00
2024-02-13T01:21:22.680Z,94488.00
2024-02-13T01:22:22.789Z,94491.00
2024-02-13T01:23:22.858Z,94491.00
2024-02-13T01:24:22.841Z,94490.00
2024-02-13T01:25:22.900Z,94493.00
2024-02-13T01:26:23.008Z,94495.00
2024-02-13T01:27:22.960Z,94498.00
2024-02-13T01:28:23.050Z,94499.00
2024-02-13T01:29:23.155Z,94501.00
2024-02-13T01:30:23.117Z,94502.00
2024-02-13T01:31:23.179Z,94504.00
2024-02-13T01:32:23.290Z,94505.00
2024-02-13T01:33:23.380Z,94505.00
2024-02-13T01:34:23.367Z,94508.00
2024-02-13T01:35:23.364Z,94510.00
2024-02-13T01:36:23.361Z,94512.00
2024-02-13T01:37:23.483Z,94513.00
2024-02-13T01:38:23.498Z,94511.00
2024-02-13T01:39:23.536Z,94513.00
2024-02-13T01:40:23.520Z,94511.00
2024-02-13T01:41:23.607Z,94511.00
2024-02-13T01:42:23.549Z,94515.00
2024-02-13T01:43:23.574Z,94514.00
2024-02-13T01:44:23.663Z,94517.00
2024-02-13T01:45:23.605Z,94519.00
2024-02-13T01:46:23.640Z,94519.00
2024-02-13T01:47:23.721Z,94522.00
2024-02-13T01:48:23.908Z,94524.00
2024-02-13T01:49:23.836Z,94524.00
2024-02-13T01:50:23.862Z,94527.00
2024-02-13T01:51:23.914Z,94529.00
2024-02-13T01:52:23.982Z,94530.00
2024-02-13T01:53:24.039Z,94534.00
2024-02-13T01:54:24.063Z,94533.00
2024-02-13T01:55:24.137Z,94536.00
2024-02-13T01:56:24.170Z,94538.00
2024-02-13T01:57:24.223Z,94539.00
2024-02-13T01:58:24.276Z,94537.00
2024-02-13T01:59:24.396Z,94538.00
2024-02-13T02:00:24.402Z,94538.00
2024-02-13T02:01:24.401Z,94540.00
2024-02-13T02:02:24.526Z,94543.00
2024-02-13T02:03:24.544Z,94545.00
2024-02-13T02:04:24.581Z,94543.00
2024-02-13T02:05:24.638Z,94546.00
2024-02-13T02:06:46.706Z,94547.00
2024-02-13T02:07:24.623Z,94550.00
2024-02-13T02:08:24.645Z,94552.00
2024-02-13T02:09:24.645Z,94553.00
2024-02-13T02:10:26.166Z,94555.00
2024-02-13T02:11:26.397Z,94556.00
2024-02-13T02:12:24.628Z,94558.00
2024-02-13T02:13:24.637Z,94559.00
2024-02-13T02:14:24.714Z,94561.00
2024-02-13T02:15:24.643Z,94563.00
2024-02-13T02:16:24.633Z,94565.00
2024-02-13T02:17:24.683Z,94565.00
2024-02-13T02:18:24.673Z,94570.00
2024-02-13T02:19:24.698Z,94571.00
2024-02-13T02:20:24.678Z,94570.00
2024-02-13T02:21:24.688Z,94569.00
2024-02-13T02:22:24.750Z,94568.00
2024-02-13T02:23:24.793Z,94569.00
2024-02-13T02:24:24.856Z,94572.00
2024-02-13T02:25:24.909Z,94575.00
2024-02-13T02:26:25.019Z,94578.00
2024-02-13T02:27:25.056Z,94579.00
2024-02-13T02:28:25.085Z,94579.00
2024-02-13T02:29:25.172Z,94581.00
2024-02-13T02:30:25.206Z,94580.00
2024-02-13T02:31:25.275Z,94579.00
2024-02-13T02:32:25.446Z,94581.00
2024-02-13T02:33:25.493Z,94582.00
2024-02-13T02:34:25.479Z,94580.00
2024-02-13T02:35:25.543Z,94579.00
2024-02-13T02:36:25.584Z,94577.00
2024-02-13T02:37:25.647Z,94579.00
2024-02-13T02:38:25.758Z,94579.00
2024-02-13T02:39:25.799Z,94579.00
2024-02-13T02:40:25.864Z,94584.00
2024-02-13T02:41:25.948Z,94583.00
2024-02-13T02:42:25.993Z,94587.00
2024-02-13T02:43:26.075Z,94591.00
2024-02-13T02:44:26.144Z,94593.00
2024-02-13T02:45:26.188Z,94595.00
2024-02-13T02:46:26.277Z,94596.00
2024-02-13T02:47:26.398Z,94596.00
2024-02-13T02:48:26.469Z,94598.00
2024-02-13T02:49:26.505Z,94599.00
2024-02-13T02:50:26.633Z,94602.00
2024-02-13T02:51:26.565Z,94605.00
2024-02-13T02:52:26.632Z,94604.00
2024-02-13T02:53:26.738Z,94606.00
2024-02-13T02:54:26.739Z,94609.00
2024-02-13T02:55:26.811Z,94611.00
2024-02-13T02:56:26.881Z,94614.00
2024-02-13T02:57:26.932Z,94614.00
2024-02-13T02:58:27.004Z,94615.00
2024-02-13T02:59:27.111Z,94613.00
2024-02-13T03:00:27.128Z,94616.00
2024-02-13T03:01:27.181Z,94615.00
2024-02-13T03:02:27.262Z,94618.00
2024-02-13T03:03:27.362Z,94620.00
2024-02-13T03:04:27.393Z,94621.00
2024-02-13T03:05:27.548Z,94622.00
2024-02-13T03:06:27.647Z,94621.00
2024-02-13T03:07:27.538Z,94622.00
2024-02-13T03:08:27.635Z,94625.00
2024-02-13T03:09:27.696Z,94626.00
2024-02-13T03:10:27.742Z,94628.00
2024-02-13T03:11:27.806Z,94630.00
2024-02-13T03:12:27.884Z,94629.00
2024-02-13T03:13:27.947Z,94631.00
2024-02-13T03:14:28.003Z,94629.00
2024-02-13T03:15:28.055Z,94626.00
2024-02-13T03:16:28.114Z,94627.00
2024-02-13T03:17:28.293Z,94629.00
2024-02-13T03:18:28.289Z,94632.00
2024-02-13T03:19:28.340Z,94634.00
2024-02-13T03:20:28.465Z,94639.00
2024-02-13T03:21:28.408Z,94642.00
2024-02-13T03:22:28.470Z,94645.00
2024-02-13T03:23:28.550Z,94646.00
2024-02-13T03:24:28.623Z,94644.00
2024-02-13T03:25:28.653Z,94645.00
2024-02-13T03:26:28.750Z,94643.00
2024-02-13T03:27:28.793Z,94647.00
2024-02-13T03:28:28.859Z,94651.00
2024-02-13T03:29:28.985Z,94652.00
2024-02-13T03:30:28.981Z,94655.00
2024-02-13T03:31:29.065Z,94655.00
2024-02-13T03:32:29.301Z,94654.00
2024-02-13T03:33:29.289Z,94655.00
2024-02-13T03:34:29.382Z,94655.00
2024-02-13T03:35:29.375Z,94657.00
2024-02-13T03:36:29.411Z,94660.00
2024-02-13T03:37:29.466Z,94660.00
2024-02-13T03:38:29.559Z,94662.00
2024-02-13T03:39:29.606Z,94665.00
2024-02-13T03:40:29.700Z,94663.00
2024-02-13T03:41:29.728Z,94666.00
2024-02-13T03:42:29.789Z,94667.00
2024-02-13T03:43:29.851Z,94671.00
2024-02-13T03:44:29.952Z,94675.00
2024-02-13T03:45:29.974Z,94675.00
2024-02-13T03:46:30.043Z,94672.00
2024-02-13T03:47:30.167Z,94673.00
2024-02-13T03:48:30.331Z,94675.00
2024-02-13T03:49:30.259Z,94673.00
2024-02-13T03:50:30.363Z,94676.00
2024-02-13T03:51:30.310Z,94675.00
2024-02-13T03:52:30.389Z,94678.00
2024-02-13T03:53:30.435Z,94680.00
2024-02-13T03:54:30.499Z,94681.00
2024-02-13T03:55:30.572Z,94685.00
2024-02-13T03:56:30.716Z,94683.00
2024-02-13T03:57:30.723Z,94688.00
2024-02-13T03:58:30.764Z,94690.00
2024-02-13T03:59:30.958Z,94694.00
2024-02-13T04:00:31.011Z,94697.00
2024-02-13T04:01:30.973Z,94695.00
2024-02-13T04:02:31.058Z,94699.00
2024-02-13T04:03:31.096Z,94701.00
2024-02-13T04:04:31.272Z,94702.00
2024-02-13T04:05:31.443Z,94703.00
2024-02-13T04:06:31.341Z,94706.00
2024-02-13T04:07:31.369Z,94707.00
2024-02-13T04:08:31.496Z,94710.00
2024-02-13T04:09:31.509Z,94714.00
2024-02-13T04:10:31.525Z,94715.00
2024-02-13T04:11:31.692Z,94718.00
2024-02-13T04:12:31.683Z,94721.00
2024-02-13T04:13:31.715Z,94720.00
2024-02-13T04:14:31.762Z,94723.00
2024-02-13T04:15:31.825Z,94722.00
2024-02-13T04:16:32.191Z,94722.00
2024-02-13T04:17:32.074Z,94725.00
2024-02-13T04:18:32.012Z,94726.00
2024-02-13T04:19:32.051Z,94726.00
2024-02-13T04:20:32.139Z,94728.00
2024-02-13T04:21:32.143Z,94729.00
2024-02-13T04:22:32.197Z,94730.00
2024-02-13T04:23:32.291Z,94730.00
2024-02-13T04:24:32.312Z,94732.00
2024-02-13T04:25:32.365Z,94729.00
2024-02-13T04:26:36.783Z,94727.00
2024-02-13T04:27:32.428Z,94724.00
2024-02-13T04:28:32.406Z,94724.00
2024-02-13T04:29:32.446Z,94724.00
2024-02-13T04:30:32.479Z,94725.00
2024-02-13T04:31:32.449Z,94725.00
2024-02-13T04:32:32.545Z,94724.00
2024-02-13T04:33:32.498Z,94726.00
2024-02-13T04:34:32.693Z,94727.00
2024-02-13T04:35:32.437Z,94727.00
2024-02-13T04:36:32.462Z,94729.00
2024-02-13T04:37:32.466Z,94727.00
2024-02-13T04:38:32.593Z,94729.00
2024-02-13T04:39:32.569Z,94730.00
2024-02-13T04:40:32.622Z,94732.00
2024-02-13T04:41:32.709Z,94735.00
2024-02-13T04:42:32.721Z,94739.00
2024-02-13T04:43:32.733Z,94741.00
2024-02-13T04:44:32.826Z,94743.00
2024-02-13T04:45:32.780Z,94745.00
2024-02-13T04:46:32.837Z,94744.00
2024-02-13T04:47:32.973Z,94746.00
2024-02-13T04:48:33.073Z,94747.00
2024-02-13T04:49:40.437Z,94747.00
2024-02-13T04:50:40.417Z,94748.00
2024-02-13T04:51:40.425Z,94748.00
2024-02-13T04:52:40.410Z,94749.00
2024-02-13T04:53:40.443Z,94746.00
2024-02-13T04:54:40.425Z,94747.00
2024-02-13T04:55:40.436Z,94746.00
2024-02-13T04:56:40.456Z,94746.00
2024-02-13T04:57:40.421Z,94745.00
2024-02-13T04:58:40.410Z,94745.00
2024-02-13T04:59:40.457Z,94747.00
2024-02-13T05:00:40.472Z,94747.00
2024-02-13T05:01:40.445Z,94749.00
2024-02-13T05:02:40.540Z,94750.00
2024-02-13T05:03:40.440Z,94751.00
2024-02-13T05:04:40.511Z,94753.00
2024-02-13T05:05:40.528Z,94755.00
2024-02-13T05:06:40.458Z,94757.00
2024-02-13T05:07:40.449Z,94758.00
2024-02-13T05:08:40.461Z,94760.00
2024-02-13T05:09:40.438Z,94761.00
2024-02-13T05:10:40.429Z,94762.00
2024-02-13T05:11:40.445Z,94762.00
2024-02-13T05:12:40.440Z,94765.00
2024-02-13T05:13:40.457Z,94766.00
2024-02-13T05:14:40.462Z,94768.00
2024-02-13T05:15:40.428Z,94766.00
2024-02-13T05:16:40.456Z,94767.00
2024-02-13T05:17:40.498Z,94765.00
2024-02-13T05:18:40.529Z,94763.00
2024-02-13T05:19:40.485Z,94768.00
2024-02-13T05:20:40.520Z,94770.00
2024-02-13T05:21:40.541Z,94772.00
2024-02-13T05:22:40.608Z,94781.00
2024-02-13T05:23:40.680Z,94777.00
2024-02-13T05:24:40.711Z,94780.00
2024-02-13T05:25:40.781Z,94781.00
2024-02-13T05:26:40.868Z,94779.00
2024-02-13T05:27:40.921Z,94779.00
2024-02-13T05:28:40.978Z,94780.00
2024-02-13T05:29:41.110Z,94782.00
2024-02-13T05:30:41.109Z,94785.00
2024-02-13T05:31:41.166Z,94785.00
2024-02-13T05:32:41.280Z,94785.00
2024-02-13T05:33:41.390Z,94786.00
2024-02-13T05:34:41.411Z,94786.00
2024-02-13T05:35:41.442Z,94784.00
2024-02-13T05:36:41.500Z,94783.00
2024-02-13T05:37:41.565Z,94786.00
2024-02-13T05:38:41.653Z,94787.00
2024-02-13T05:39:41.720Z,94792.00
2024-02-13T05:40:41.738Z,94792.00
2024-02-13T05:41:41.891Z,94795.00
2024-02-13T05:42:41.883Z,94793.00
2024-02-13T05:43:42.048Z,94793.00
2024-02-13T05:44:42.022Z,94794.00
2024-02-13T05:45:42.076Z,94795.00
2024-02-13T05:46:42.144Z,94795.00
2024-02-13T05:47:42.282Z,94795.00
2024-02-13T05:48:42.610Z,94797.00
2024-02-13T05:49:42.378Z,94798.00
2024-02-13T05:50:42.462Z,94800.00
2024-02-13T05:51:42.465Z,94800.00
2024-02-13T05:52:42.522Z,94804.00
2024-02-13T05:53:42.672Z,94805.00
2024-02-13T05:54:43.938Z,94807.00
2024-02-13T05:55:42.736Z,94805.00
2024-02-13T05:56:42.789Z,94807.00
2024-02-13T05:57:42.889Z,94806.00
2024-02-13T05:58:42.940Z,94805.00
2024-02-13T05:59:43.025Z,94806.00
2024-02-13T06:00:43.136Z,94804.00
2024-02-13T06:01:43.164Z,94805.00
2024-02-13T06:02:43.232Z,94807.00
2024-02-13T06:03:43.402Z,94810.00
2024-02-13T06:04:43.366Z,94811.00
2024-02-13T06:05:43.591Z,94815.00
2024-02-13T06:06:43.574Z,94815.00
2024-02-13T06:07:43.504Z,94817.00
2024-02-13T06:08:43.605Z,94817.00
2024-02-13T06:09:43.754Z,94819.00
2024-02-13T06:10:43.731Z,94820.00
2024-02-13T06:11:43.863Z,94820.00
2024-02-13T06:12:43.819Z,94821.00
2024-02-13T06:13:43.881Z,94823.00
2024-02-13T06:14:43.968Z,94822.00
2024-02-13T06:15:43.986Z,94825.00
2024-02-13T06:16:44.039Z,94827.00
2024-02-13T06:17:44.168Z,94828.00
2024-02-13T06:18:44.285Z,94832.00
2024-02-13T06:19:44.289Z,94833.00
2024-02-13T06:20:44.369Z,94836.00
2024-02-13T06:21:44.348Z,94839.00
2024-02-13T06:22:44.460Z,94839.00
2024-02-13T06:23:44.494Z,94839.00
2024-02-13T06:24:44.544Z,94840.00
2024-02-13T06:25:44.610Z,94839.00
2024-02-13T06:26:44.700Z,94844.00
2024-02-13T06:27:44.694Z,94846.00
2024-02-13T06:28:44.844Z,94846.00
2024-02-13T06:29:44.905Z,94847.00
2024-02-13T06:30:44.909Z,94848.00
2024-02-13T06:31:44.979Z,94848.00
2024-02-13T06:32:45.159Z,94847.00
2024-02-13T06:33:45.309Z,94846.00
2024-02-13T06:34:45.254Z,94848.00
2024-02-13T06:35:45.248Z,94851.00
2024-02-13T06:36:45.318Z,94855.00
2024-02-13T06:37:45.399Z,94857.00
2024-02-13T06:38:45.480Z,94865.00
2024-02-13T06:39:45.492Z,94862.00
2024-02-13T06:40:45.555Z,94865.00
2024-02-13T06:41:45.660Z,94864.00
2024-02-13T06:42:45.695Z,94866.00
2024-02-13T06:43:45.750Z,94864.00
2024-02-13T06:44:45.871Z,94865.00
2024-02-13T06:45:45.898Z,94868.00
2024-02-13T06:46:45.959Z,94867.00
2024-02-13T06:47:46.083Z,94869.00
2024-02-13T06:48:46.217Z,94874.00
2024-02-13T06:49:46.254Z,94874.00
2024-02-13T06:50:46.253Z,94877.00
2024-02-13T06:51:46.291Z,94875.00
2024-02-13T06:52:46.396Z,94877.00
2024-02-13T06:53:46.480Z,94878.00
2024-02-13T06:54:50.319Z,94876.00
2024-02-13T06:55:46.487Z,94877.00
2024-02-13T06:56:46.542Z,94878.00
2024-02-13T06:57:46.483Z,94877.00
2024-02-13T06:58:46.500Z,94880.00
2024-02-13T06:59:46.541Z,94879.00
2024-02-13T07:00:46.514Z,94880.00
2024-02-13T07:01:46.506Z,94882.00
2024-02-13T07:02:46.603Z,94882.00
2024-02-13T07:03:46.552Z,94882.00
2024-02-13T07:04:46.517Z,94883.00
2024-02-13T07:05:46.632Z,94882.00
2024-02-13T07:06:58.618Z,94881.00
2024-02-13T07:07:48.642Z,94882.00
2024-02-13T07:08:46.632Z,94881.00
2024-02-13T07:09:46.739Z,94883.00
2024-02-13T07:10:46.643Z,94886.00
2024-02-13T07:11:46.795Z,94884.00
2024-02-13T07:12:46.773Z,94884.00
2024-02-13T07:13:46.829Z,94886.00
2024-02-13T07:14:47.024Z,94886.00
2024-02-13T07:15:47.095Z,94887.00
2024-02-13T07:16:47.033Z,94886.00
2024-02-13T07:17:55.900Z,94886.00
2024-02-13T07:18:48.244Z,94887.00
2024-02-13T07:19:47.334Z,94888.00
2024-02-13T07:20:47.171Z,94888.00
2024-02-13T07:21:47.126Z,94888.00
2024-02-13T07:22:47.514Z,94890.00
2024-02-13T07:23:47.158Z,94889.00
2024-02-13T07:24:47.128Z,94890.00
2024-02-13T07:25:47.117Z,94892.00
2024-02-13T07:26:47.250Z,94896.00
2024-02-13T07:27:47.198Z,94897.00
2024-02-13T07:28:47.276Z,94897.00
2024-02-13T07:29:47.389Z,94898.00
2024-02-13T07:30:47.421Z,94898.00
2024-02-13T07:31:47.474Z,94898.00
2024-02-13T07:32:48.063Z,94900.00
2024-02-13T07:33:47.731Z,94900.00
2024-02-13T07:34:47.708Z,94903.00
2024-02-13T07:35:47.879Z,94901.00
2024-02-13T07:36:47.857Z,94903.00
2024-02-13T07:37:47.888Z,94904.00
2024-02-13T07:38:48.042Z,94904.00
2024-02-13T07:39:48.024Z,94905.00
2024-02-13T07:40:48.075Z,94905.00
2024-02-13T07:41:48.249Z,94910.00
2024-02-13T07:42:48.215Z,94911.00
2024-02-13T07:43:48.414Z,94911.00
2024-02-13T07:44:48.432Z,94913.00
2024-02-13T07:45:48.412Z,94914.00
2024-02-13T07:46:51.315Z,94914.00
2024-02-13T07:47:48.645Z,94915.00
2024-02-13T07:48:48.563Z,94917.00
2024-02-13T07:49:48.520Z,94917.00
2024-02-13T07:50:48.528Z,94918.00
2024-02-13T07:51:48.500Z,94920.00
2024-02-13T07:52:48.509Z,94921.00
2024-02-13T07:53:48.559Z,94921.00
2024-02-13T07:54:48.533Z,94923.00
2024-02-13T07:55:48.503Z,94925.00
2024-02-13T07:56:48.533Z,94925.00
2024-02-13T07:57:48.505Z,94926.00
2024-02-13T07:58:48.521Z,94926.00
2024-02-13T07:59:48.584Z,94927.00
2024-02-13T08:00:48.558Z,94928.00
2024-02-13T08:01:48.530Z,94928.00
2024-02-13T08:02:48.535Z,94929.00
2024-02-13T08:03:48.589Z,94929.00
2024-02-13T08:04:48.543Z,94930.00
2024-02-13T08:05:48.665Z,94930.00
2024-02-13T08:06:48.744Z,94930.00
2024-02-13T08:07:48.528Z,94932.00
2024-02-13T08:08:48.699Z,94934.00
2024-02-13T08:09:48.530Z,94938.00
2024-02-13T08:10:48.545Z,94938.00
2024-02-13T08:11:48.576Z,94940.00
2024-02-13T08:12:48.527Z,94940.00
2024-02-13T08:13:48.525Z,94939.00
2024-02-13T08:14:48.558Z,94942.00
2024-02-13T08:15:48.558Z,94942.00
2024-02-13T08:16:48.531Z,94943.00
2024-02-13T08:17:48.618Z,94947.00
2024-02-13T08:18:48.602Z,94947.00
2024-02-13T08:19:48.603Z,94948.00
2024-02-13T08:20:48.610Z,94948.00
2024-02-13T08:21:48.560Z,94949.00
2024-02-13T08:22:48.566Z,94950.00
2024-02-13T08:23:48.562Z,94952.00
2024-02-13T08:24:48.581Z,94951.00
2024-02-13T08:25:48.632Z,94951.00
2024-02-13T08:26:48.736Z,94950.00
2024-02-13T08:27:48.720Z,94950.00
2024-02-13T08:28:48.790Z,94948.00
2024-02-13T08:29:48.898Z,94950.00
2024-02-13T08:30:48.892Z,94950.00
2024-02-13T08:31:48.953Z,94950.00
2024-02-13T08:32:49.139Z,94952.00
2024-02-13T08:33:49.433Z,94954.00
2024-02-13T08:34:49.266Z,94951.00
2024-02-13T08:35:49.291Z,94952.00
2024-02-13T08:36:49.337Z,94951.00
2024-02-13T08:37:49.302Z,94951.00
2024-02-13T08:38:49.580Z,94952.00
2024-02-13T08:39:49.486Z,94953.00
2024-02-13T08:40:49.584Z,94953.00
2024-02-13T08:41:49.795Z,94952.00
2024-02-13T08:42:49.674Z,94951.00
2024-02-13T08:43:49.669Z,94951.00
2024-02-13T08:44:49.795Z,94952.00
2024-02-13T08:45:49.790Z,94953.00
2024-02-13T08:46:49.839Z,94955.00
2024-02-13T08:47:50.037Z,94957.00
2024-02-13T08:48:50.268Z,94956.00
2024-02-13T08:49:50.127Z,94956.00
2024-02-13T08:50:50.154Z,94957.00
2024-02-13T08:51:50.319Z,94958.00
2024-02-13T08:52:50.199Z,94961.00
2024-02-13T08:53:50.295Z,94959.00
2024-02-13T08:54:50.329Z,94959.00
2024-02-13T08:55:50.396Z,94959.00
2024-02-13T08:56:50.527Z,94959.00
2024-02-13T08:57:50.512Z,94959.00
2024-02-13T08:58:50.580Z,94959.00
2024-02-13T08:59:51.216Z,94959.00
2024-02-13T09:00:50.718Z,94958.00
2024-02-13T09:01:50.720Z,94962.00
2024-02-13T09:02:50.814Z,94958.00
2024-02-13T09:03:50.842Z,94958.00
2024-02-13T09:04:50.931Z,94959.00
2024-02-13T09:05:51.007Z,94957.00
2024-02-13T09:06:51.101Z,94956.00
2024-02-13T09:07:51.055Z,94957.00
2024-02-13T09:08:51.214Z,94957.00
2024-02-13T09:09:51.198Z,94956.00
2024-02-13T09:10:51.232Z,94955.00
2024-02-13T09:11:51.300Z,94956.00
2024-02-13T09:12:51.350Z,94957.00
2024-02-13T09:13:51.376Z,94958.00
2024-02-13T09:14:51.504Z,94956.00
2024-02-13T09:15:51.509Z,94956.00
2024-02-13T09:16:51.545Z,94955.00
2024-02-13T09:17:51.688Z,94956.00
2024-02-13T09:18:51.800Z,94956.00
2024-02-13T09:19:51.798Z,94956.00
2024-02-13T09:20:51.881Z,94957.00
2024-02-13T09:21:51.834Z,94960.00
2024-02-13T09:22:52.079Z,94962.00
2024-02-13T09:23:52.005Z,94960.00
2024-02-13T09:24:53.928Z,94960.00
2024-02-13T09:25:52.029Z,94958.00
2024-02-13T09:26:52.068Z,94957.00
2024-02-13T09:27:52.003Z,94958.00
2024-02-13T09:28:52.016Z,94956.00
2024-02-13T09:29:52.071Z,94958.00
2024-02-13T09:30:52.031Z,94957.00
2024-02-13T09:31:52.162Z,94959.00
2024-02-13T09:32:52.163Z,94957.00
2024-02-13T09:33:52.103Z,94959.00
2024-02-13T09:34:52.071Z,94960.00
2024-02-13T09:35:52.288Z,94959.00
2024-02-13T09:36:52.023Z,94962.00
2024-02-13T09:37:52.061Z,94962.00
2024-02-13T09:38:52.068Z,94964.00
2024-02-13T09:39:52.032Z,94963.00
2024-02-13T09:40:52.261Z,94964.00
2024-02-13T09:41:52.079Z,94962.00
2024-02-13T09:42:52.064Z,94962.00
2024-02-13T09:43:52.164Z,94960.00
2024-02-13T09:44:52.062Z,94960.00
2024-02-13T09:45:52.036Z,94961.00
2024-02-13T09:46:52.032Z,94961.00
2024-02-13T09:47:52.119Z,94961.00
2024-02-13T09:48:52.221Z,94961.00
2024-02-13T09:49:52.068Z,94960.00
2024-02-13T09:50:52.129Z,94961.00
2024-02-13T09:51:52.075Z,94959.00
2024-02-13T09:52:52.039Z,94961.00
2024-02-13T09:53:52.150Z,94961.00
2024-02-13T09:54:52.073Z,94961.00
2024-02-13T09:55:52.093Z,94963.00
2024-02-13T09:56:52.132Z,94963.00
2024-02-13T09:57:52.060Z,94964.00
2024-02-13T09:58:52.114Z,94966.00
2024-02-13T09:59:52.118Z,94964.00
2024-02-13T10:00:52.105Z,94965.00
2024-02-13T10:01:52.095Z,94964.00
2024-02-13T10:02:52.165Z,94965.00
2024-02-13T10:03:52.075Z,94965.00
2024-02-13T10:04:52.059Z,94967.00
2024-02-13T10:05:52.926Z,94967.00
2024-02-13T10:06:52.596Z,94967.00
2024-02-13T10:07:52.056Z,94966.00
2024-02-13T10:08:52.156Z,94966.00
2024-02-13T10:09:52.074Z,94968.00
2024-02-13T10:10:52.067Z,94968.00
2024-02-13T10:11:52.121Z,94967.00
2024-02-13T10:12:52.069Z,94967.00
2024-02-13T10:13:52.117Z,94967.00
2024-02-13T10:14:52.202Z,94967.00
2024-02-13T10:15:52.210Z,94966.00
2024-02-13T10:16:52.277Z,94965.00
2024-02-13T10:17:52.558Z,94966.00
2024-02-13T10:18:52.442Z,94963.00
2024-02-13T10:19:52.473Z,94964.00
2024-02-13T10:20:52.510Z,94964.00
2024-02-13T10:21:52.476Z,94961.00
2024-02-13T10:22:52.581Z,94963.00
2024-02-13T10:23:52.623Z,94962.00
2024-02-13T10:24:52.579Z,94961.00
2024-02-13T10:25:52.649Z,94961.00
2024-02-13T10:26:52.719Z,94962.00
2024-02-13T10:27:52.708Z,94960.00
2024-02-13T10:28:52.745Z,94960.00
2024-02-13T10:29:53.183Z,94960.00
2024-02-13T10:30:52.898Z,94957.00
2024-02-13T10:31:52.861Z,94957.00
2024-02-13T10:32:53.071Z,94957.00
2024-02-13T10:33:52.981Z,94955.00
2024-02-13T10:34:53.053Z,94953.00
2024-02-13T10:35:53.153Z,94952.00
2024-02-13T10:36:53.066Z,94952.00
2024-02-13T10:37:53.119Z,94954.00
2024-02-13T10:38:53.190Z,94953.00
2024-02-13T10:39:53.190Z,94952.00
2024-02-13T10:40:53.243Z,94951.00
2024-02-13T10:41:53.321Z,94948.00
2024-02-13T10:42:53.321Z,94945.00
2024-02-13T10:43:53.368Z,94943.00
2024-02-13T10:44:53.719Z,94941.00
2024-02-13T10:45:53.425Z,94938.00
2024-02-13T10:46:53.461Z,94938.00
2024-02-13T10:47:53.584Z,94938.00
2024-02-13T10:48:53.597Z,94939.00
2024-02-13T10:49:53.646Z,94937.00
2024-02-13T10:50:53.701Z,94935.00
2024-02-13T10:51:53.658Z,94937.00
2024-02-13T10:52:53.693Z,94935.00
2024-02-13T10:53:53.804Z,94935.00
2024-02-13T10:54:53.761Z,94933.00
2024-02-13T10:55:53.816Z,94933.00
2024-02-13T10:56:53.859Z,94931.00
2024-02-13T10:57:53.907Z,94932.00
2024-02-13T10:58:53.905Z,94933.00
2024-02-13T10:59:54.005Z,94933.00
2024-02-13T11:00:54.059Z,94932.00
2024-02-13T11:01:54.098Z,94931.00
2024-02-13T11:02:54.378Z,94928.00
2024-02-13T11:03:54.139Z,94931.00
2024-02-13T11:04:54.206Z,94930.00
2024-02-13T11:05:54.376Z,94933.00
2024-02-13T11:06:54.231Z,94933.00
2024-02-13T11:07:54.266Z,94930.00
2024-02-13T11:08:54.321Z,94927.00
2024-02-13T11:09:54.319Z,94927.00
2024-02-13T11:10:54.363Z,94928.00
2024-02-13T11:11:54.513Z,94930.00
2024-02-13T11:13:54.471Z,94930.00
2024-02-13T11:14:54.526Z,94931.00
2024-02-13T11:15:54.535Z,94929.00
2024-02-13T11:16:54.566Z,94932.00
2024-02-13T11:17:54.663Z,94932.00
2024-02-13T11:18:54.851Z,94933.00
2024-02-13T11:19:54.912Z,94932.00
2024-02-13T11:20:54.773Z,94932.00
2024-02-13T11:21:54.758Z,94929.00
2024-02-13T11:22:54.775Z,94932.00
2024-02-13T11:23:54.964Z,94930.00
2024-02-13T11:24:54.955Z,94928.00
2024-02-13T11:25:54.898Z,94926.00
2024-02-13T11:26:54.989Z,94922.00
2024-02-13T11:27:54.965Z,94922.00
2024-02-13T11:28:55.001Z,94926.00
2024-02-13T11:29:55.137Z,94923.00
2024-02-13T11:30:55.056Z,94921.00
2024-02-13T11:31:55.102Z,94922.00
2024-02-13T11:32:55.209Z,94921.00
2024-02-13T11:33:55.249Z,94920.00
2024-02-13T11:34:55.397Z,94920.00
2024-02-13T11:35:55.379Z,94918.00
2024-02-13T11:36:55.283Z,94916.00
2024-02-13T11:37:55.317Z,94916.00
2024-02-13T11:38:55.443Z,94915.00
2024-02-13T11:39:55.397Z,94914.00
2024-02-13T11:40:55.431Z,94914.00
2024-02-13T11:41:55.462Z,94913.00
2024-02-13T11:42:55.494Z,94912.00
2024-02-13T11:43:55.551Z,94912.00
2024-02-13T11:44:55.610Z,94912.00
2024-02-13T11:45:55.614Z,94911.00